Startpagina
METAR-TAF:

METAR-TAF

Vliegvelden :

Luchthaven Pointe-Noire

Pointe-Noire, Congo

breedte: 04-49S, lengte: 011-54E, hoogte: 17 m

Actueel weer

Dit bericht is 1 uur en het 30 minuten geleden gemaakt, om 17:00 UTC
Wind 8 kt uit het zuiden
Temperatuur 23°C
Vochtigheid 83%
Druk 1014 hPa
Zicht 10 km of meer
Verspreide wolken op 1300 ft

METAR: FCPP 181700Z 19008KT 9999 SCT013 23/20 Q1014 NOSIG

Tijdstip: 19:30 (18:30 UTC)

Verwachting

Dit bericht is 1 uur en het 30 minuten geleden gemaakt, om 17:00 UTC
Verwachting geldig van 18 om 18 UTC tot 19 om 18 UTC
Wind 8 kt uit het zuidzuidwesten
Zicht: 8000 m
Verspreide wolken op 1300 ft
Gebroken wolken op 2300 ft
Kans 30%
van 19 om 04 UTC tot 19 om 08 UTC
Zicht: 4000 m
nevel

TAF: FCPP 181700Z 1818/1918 20008KT 8000 SCT013 BKN023 PROB30 1904/1908 4000 BR

Waarnemingen en weersverwachtingen van meer dan 4000 vliegvelden (METAR en TAF).

De beschikbare stations zijn de gele en rode punten op de kaart.

Ga met uw muis naar het station om de naam te zien.

Klik dan om waarnemingen en weersverwachtingen te zien.

kaart wijzigen: klik op de groene knoppen met een zwart kruis om in te zoomen, op de groene knop met een streepje om uit te zoomen of op de groene pijlen voor aangrenzende kaarten.


METAR-TAF: